Time;durP1;ratioP1;P1;durP2;ratioP2;P2;SDS_P1;SDS_P2;PMS_P1;PMS_P2;Temp;Humidity;BMP_temperature;BMP_pressure;BME280_temperature;BME280_humidity;BME280_pressure;Samples;Min_cycle;Max_cycle;Signal;HPM_P1;HPM_P2
2023/08/20 00:00:01;;;;;;;9.48;5.22;;;18.10;99.90;;;;;;5046099;28;20220;-81
2023/08/20 00:02:32;;;;;;;10.05;5.47;;;18.00;99.90;;;;;;5064294;28;20227;-81
2023/08/20 00:04:59;;;;;;;12.18;6.25;;;18.00;99.90;;;;;;5044637;28;20253;-81
2023/08/20 00:07:26;;;;;;;13.23;5.13;;;18.00;99.90;;;;;;5051979;28;20234;-81
2023/08/20 00:09:54;;;;;;;9.45;5.30;;;17.90;99.90;;;;;;5051069;28;20223;-82
2023/08/20 00:12:22;;;;;;;10.60;5.40;;;17.90;99.90;;;;;;5045059;28;20233;-82
2023/08/20 00:14:58;;;;;;;13.07;5.70;;;17.90;99.90;;;;;;5050621;28;20744;-82
2023/08/20 00:17:26;;;;;;;9.60;5.35;;;17.80;99.90;;;;;;5048612;28;20226;-82
2023/08/20 00:19:54;;;;;;;13.00;5.47;;;17.80;99.90;;;;;;5045607;28;20235;-82
2023/08/20 00:22:23;;;;;;;10.53;5.50;;;17.70;99.90;;;;;;5048588;28;20298;-81
2023/08/20 00:24:50;;;;;;;14.23;5.17;;;17.70;99.90;;;;;;5043967;28;20229;-82
2023/08/20 00:27:18;;;;;;;13.93;5.70;;;17.60;99.90;;;;;;5041034;28;20250;-82
2023/08/20 00:29:45;;;;;;;11.07;5.63;;;17.60;99.90;;;;;;5038836;28;20284;-81
2023/08/20 00:32:13;;;;;;;12.95;5.85;;;17.60;99.90;;;;;;5046079;28;20318;-82
2023/08/20 00:34:40;;;;;;;18.13;6.20;;;17.60;99.90;;;;;;5068538;28;20226;-81
2023/08/20 00:37:07;;;;;;;13.27;5.93;;;17.50;99.90;;;;;;5035029;28;20600;-81
2023/08/20 00:39:34;;;;;;;16.07;5.97;;;17.50;99.90;;;;;;5044534;28;20269;-82
2023/08/20 00:42:01;;;;;;;11.50;6.00;;;17.40;99.90;;;;;;5041557;28;20254;-81
2023/08/20 00:44:29;;;;;;;13.18;6.45;;;17.40;99.90;;;;;;5045687;28;20306;-81
2023/08/20 00:46:58;;;;;;;15.33;6.63;;;17.40;99.90;;;;;;5050951;28;20779;-82
2023/08/20 00:49:25;;;;;;;13.07;6.50;;;17.30;99.90;;;;;;5049889;28;20235;-81
2023/08/20 00:51:53;;;;;;;13.10;6.17;;;17.30;99.90;;;;;;5045560;28;20767;-81
2023/08/20 00:54:21;;;;;;;15.10;6.80;;;17.20;99.90;;;;;;5048942;28;20223;-81
2023/08/20 00:56:50;;;;;;;14.33;7.03;;;17.20;99.90;;;;;;5049651;28;20253;-81
2023/08/20 00:59:17;;;;;;;12.50;6.17;;;17.20;99.90;;;;;;5047015;28;20238;-81
2023/08/20 01:01:46;;;;;;;11.23;6.63;;;17.10;99.90;;;;;;5065685;28;20215;-81
2023/08/20 01:04:13;;;;;;;14.47;7.00;;;17.10;99.90;;;;;;5069292;28;20310;-82
2023/08/20 01:06:48;;;;;;;19.20;7.47;;;17.10;99.90;;;;;;5043984;28;20287;-82
2023/08/20 01:09:27;;;;;;;11.50;7.00;;;17.00;99.90;;;;;;5044508;28;20210;-82
2023/08/20 01:12:00;;;;;;;12.33;6.03;;;17.00;99.90;;;;;;5044390;28;20773;-82
2023/08/20 01:14:26;;;;;;;13.07;5.70;;;16.90;99.90;;;;;;5039115;28;20303;-82
2023/08/20 01:16:55;;;;;;;11.70;5.87;;;16.90;99.90;;;;;;5057360;28;20351;-81
2023/08/20 01:19:23;;;;;;;11.33;6.60;;;16.90;99.90;;;;;;5061405;28;20226;-81
2023/08/20 01:22:06;;;;;;;10.43;6.43;;;16.80;99.90;;;;;;5047134;28;20302;-81
2023/08/20 01:24:45;;;;;;;11.93;5.43;;;16.70;99.90;;;;;;5060891;28;20303;-82
2023/08/20 01:27:27;;;;;;;10.77;6.20;;;16.70;99.90;;;;;;5059469;28;20223;-82
2023/08/20 01:29:56;;;;;;;8.90;5.37;;;16.60;99.90;;;;;;5044152;28;20253;-82
2023/08/20 01:32:26;;;;;;;13.57;6.60;;;16.60;99.90;;;;;;5041096;28;20661;-82
2023/08/20 01:34:53;;;;;;;8.83;5.50;;;16.50;99.90;;;;;;5041748;28;20212;-82
2023/08/20 01:37:20;;;;;;;16.47;6.57;;;16.50;99.90;;;;;;5039509;28;20276;-84
2023/08/20 01:39:47;;;;;;;13.33;6.10;;;16.50;99.90;;;;;;5034056;28;20698;-83
2023/08/20 01:42:13;;;;;;;9.57;6.80;;;16.40;99.90;;;;;;5060810;28;20251;-82
2023/08/20 01:44:40;;;;;;;8.97;5.63;;;16.40;99.90;;;;;;5042420;28;20752;-82
2023/08/20 01:47:09;;;;;;;12.37;5.73;;;16.40;99.90;;;;;;5040742;28;20237;-83
2023/08/20 01:49:36;;;;;;;12.87;6.90;;;16.30;99.90;;;;;;5038918;28;20311;-82
2023/08/20 01:52:03;;;;;;;8.97;5.83;;;16.30;99.90;;;;;;5039105;28;20315;-82
2023/08/20 01:54:30;;;;;;;9.40;6.30;;;16.20;99.90;;;;;;5047643;28;20250;-82
2023/08/20 01:56:57;;;;;;;7.40;4.97;;;16.10;99.90;;;;;;5065142;28;20231;-82
2023/08/20 01:59:24;;;;;;;12.50;6.27;;;16.10;99.90;;;;;;5049574;28;20263;-82
2023/08/20 02:01:50;;;;;;;13.60;6.40;;;16.10;99.90;;;;;;5049145;28;20267;-82
2023/08/20 02:04:19;;;;;;;12.40;6.07;;;16.00;99.90;;;;;;5046890;28;20314;-82
2023/08/20 02:06:46;;;;;;;11.10;5.67;;;16.00;99.90;;;;;;5047253;28;20231;-83
2023/08/20 02:09:14;;;;;;;12.50;5.50;;;15.90;99.90;;;;;;5060155;28;20216;-83
2023/08/20 02:11:41;;;;;;;12.23;6.60;;;15.90;99.90;;;;;;5047983;28;20808;-84
2023/08/20 02:14:08;;;;;;;12.47;5.90;;;15.80;99.90;;;;;;5065894;28;20254;-83
2023/08/20 02:16:35;;;;;;;11.47;6.00;;;15.80;99.90;;;;;;5048039;28;20322;-84
2023/08/20 02:19:02;;;;;;;11.50;5.90;;;15.80;99.90;;;;;;5064822;28;20223;-83
2023/08/20 02:21:31;;;;;;;12.60;5.73;;;15.70;99.90;;;;;;5060653;28;20227;-83
2023/08/20 02:23:58;;;;;;;11.70;5.50;;;15.70;99.90;;;;;;5040543;28;20870;-82
2023/08/20 02:26:25;;;;;;;11.37;6.20;;;15.60;99.90;;;;;;5063434;28;20230;-83
2023/08/20 02:28:52;;;;;;;11.10;6.30;;;15.60;99.90;;;;;;5037943;28;20798;-83
2023/08/20 02:31:19;;;;;;;12.90;5.70;;;15.60;99.90;;;;;;5040846;28;20318;-83
2023/08/20 02:33:48;;;;;;;13.70;6.00;;;15.50;99.90;;;;;;5036127;28;20224;-83
2023/08/20 02:36:15;;;;;;;10.00;6.03;;;15.60;99.90;;;;;;5036236;28;20273;-83
2023/08/20 02:38:45;;;;;;;12.63;5.83;;;15.50;99.90;;;;;;5056311;28;20314;-82
2023/08/20 02:41:13;;;;;;;15.03;6.20;;;15.50;99.90;;;;;;5054205;28;20224;-83
2023/08/20 02:43:40;;;;;;;9.93;5.80;;;15.40;99.90;;;;;;5061597;28;20244;-83
2023/08/20 02:46:06;;;;;;;10.50;5.83;;;15.40;99.90;;;;;;5045545;28;20225;-84
2023/08/20 02:48:35;;;;;;;16.93;6.83;;;15.30;99.90;;;;;;5041481;28;20226;-83
2023/08/20 02:51:02;;;;;;;10.83;5.37;;;15.30;99.90;;;;;;5043368;28;20258;-81
2023/08/20 02:53:29;;;;;;;7.97;4.87;;;15.30;99.90;;;;;;5064545;28;20230;-83
2023/08/20 02:55:57;;;;;;;12.30;5.23;;;15.30;99.90;;;;;;5063399;28;20234;-82
2023/08/20 02:58:24;;;;;;;12.97;6.60;;;15.20;99.90;;;;;;5036792;28;20323;-82
2023/08/20 03:00:50;;;;;;;11.33;5.87;;;15.20;99.90;;;;;;5037099;28;20310;-82
2023/08/20 03:03:17;;;;;;;13.60;5.80;;;15.20;99.90;;;;;;5040468;28;20225;-82
2023/08/20 03:05:45;;;;;;;12.90;6.53;;;15.10;99.90;;;;;;5050403;28;20258;-82
2023/08/20 03:08:11;;;;;;;15.07;7.53;;;15.10;99.90;;;;;;5059281;28;20226;-81
2023/08/20 03:10:39;;;;;;;9.53;5.23;;;15.10;99.90;;;;;;5045596;28;20222;-82
2023/08/20 03:13:07;;;;;;;10.70;5.73;;;15.00;99.90;;;;;;5045377;28;20815;-82
2023/08/20 03:15:34;;;;;;;12.17;5.80;;;15.00;99.90;;;;;;5057640;28;20235;-82
2023/08/20 03:18:01;;;;;;;27.50;9.03;;;15.00;99.90;;;;;;5061874;28;20224;-82
2023/08/20 03:20:30;;;;;;;17.23;7.47;;;15.00;99.90;;;;;;5049506;28;20231;-82
2023/08/20 03:22:58;;;;;;;234.30;21.27;;;14.90;99.90;;;;;;5049571;28;20264;-83
2023/08/20 03:25:25;;;;;;;20.73;10.00;;;14.90;99.90;;;;;;5045036;28;20277;-83
2023/08/20 03:27:53;;;;;;;16.93;9.67;;;14.90;99.90;;;;;;5037001;28;20227;-83
2023/08/20 03:30:22;;;;;;;16.97;8.30;;;14.90;99.90;;;;;;5040104;28;21048;-81
2023/08/20 03:32:49;;;;;;;10.80;6.70;;;14.90;99.90;;;;;;5031255;28;20223;-82
2023/08/20 03:35:16;;;;;;;11.07;6.57;;;14.90;99.90;;;;;;5045119;28;20234;-83
2023/08/20 03:37:43;;;;;;;25.03;8.40;;;14.90;99.90;;;;;;5058938;28;20728;-83
2023/08/20 03:40:11;;;;;;;21.57;8.10;;;14.90;99.90;;;;;;5041660;28;20264;-82
2023/08/20 03:42:38;;;;;;;20.33;10.03;;;14.90;99.90;;;;;;5041799;28;20314;-84
2023/08/20 03:45:06;;;;;;;16.83;8.90;;;14.90;99.90;;;;;;5052177;28;20636;-83
2023/08/20 03:47:36;;;;;;;13.17;6.63;;;14.90;99.90;;;;;;5034004;28;20693;-83
2023/08/20 03:50:03;;;;;;;19.80;9.80;;;14.80;99.90;;;;;;5034420;28;20246;-83
2023/08/20 03:52:31;;;;;;;9.70;6.57;;;14.80;99.90;;;;;;5042836;28;20279;-83
2023/08/20 03:54:57;;;;;;;15.93;8.63;;;14.80;99.90;;;;;;5048039;28;20635;-83
2023/08/20 03:57:24;;;;;;;11.57;7.10;;;14.70;99.90;;;;;;5063728;28;20238;-83
2023/08/20 03:59:51;;;;;;;14.80;8.13;;;14.70;99.90;;;;;;5040467;28;20221;-83
2023/08/20 04:02:18;;;;;;;13.47;7.10;;;14.70;99.90;;;;;;5040489;28;20222;-83
2023/08/20 04:04:46;;;;;;;11.87;5.60;;;14.70;99.90;;;;;;5041184;28;20217;-82
2023/08/20 04:07:13;;;;;;;14.20;8.20;;;14.70;99.90;;;;;;5040722;28;20218;-83
2023/08/20 04:09:41;;;;;;;15.53;8.67;;;14.70;99.90;;;;;;5063191;28;20758;-83
2023/08/20 04:12:08;;;;;;;17.63;9.10;;;14.60;99.90;;;;;;5035201;28;20222;-82
2023/08/20 04:14:37;;;;;;;17.17;9.27;;;14.60;99.90;;;;;;5058812;28;20768;-82
2023/08/20 04:17:04;;;;;;;21.67;10.47;;;14.60;99.90;;;;;;5065332;28;20252;-83
2023/08/20 04:19:32;;;;;;;14.37;7.90;;;14.70;99.90;;;;;;5043166;28;20275;-82
2023/08/20 04:22:00;;;;;;;23.10;9.17;;;14.70;99.90;;;;;;5040335;28;20759;-83
2023/08/20 04:24:27;;;;;;;40.10;10.63;;;14.70;99.90;;;;;;5039564;28;20233;-82
2023/08/20 04:26:54;;;;;;;36.13;9.87;;;14.70;99.90;;;;;;5046107;28;20232;-83
2023/08/20 04:29:27;;;;;;;26.13;9.13;;;14.80;99.90;;;;;;5038535;28;20236;-83
2023/08/20 04:31:54;;;;;;;26.97;8.30;;;14.80;99.90;;;;;;5039429;28;20221;-81
2023/08/20 04:34:20;;;;;;;20.83;8.60;;;14.80;99.90;;;;;;5040460;28;20716;-82
2023/08/20 04:36:51;;;;;;;17.90;7.37;;;14.80;99.90;;;;;;5046414;28;20309;-81
2023/08/20 04:39:19;;;;;;;25.37;8.57;;;14.80;99.90;;;;;;5045794;28;20218;-81
2023/08/20 04:41:50;;;;;;;16.60;8.47;;;14.90;99.90;;;;;;5046794;28;20778;-81
2023/08/20 04:44:18;;;;;;;22.07;9.27;;;14.90;99.90;;;;;;5046316;28;20303;-81
2023/08/20 04:46:46;;;;;;;18.80;8.90;;;14.90;99.90;;;;;;5042155;28;20226;-82
2023/08/20 04:49:13;;;;;;;15.87;9.13;;;14.90;99.90;;;;;;5045912;28;20246;-83
2023/08/20 04:51:40;;;;;;;30.57;9.90;;;15.00;99.90;;;;;;5041638;28;20258;-82
2023/08/20 04:54:07;;;;;;;20.80;10.00;;;15.00;99.90;;;;;;5063794;28;20227;-83
2023/08/20 04:56:35;;;;;;;24.27;8.63;;;15.10;99.90;;;;;;5044954;28;20333;-81
2023/08/20 04:59:02;;;;;;;16.67;8.63;;;15.10;99.90;;;;;;5044979;28;20330;-81
2023/08/20 05:01:48;;;;;;;31.50;9.97;;;15.20;99.90;;;;;;5061136;28;20229;-82
2023/08/20 05:04:17;;;;;;;11.77;8.13;;;15.20;99.90;;;;;;5047260;28;20226;-81
2023/08/20 05:06:44;;;;;;;30.77;9.77;;;15.30;99.90;;;;;;5044310;28;20314;-81
2023/08/20 05:09:10;;;;;;;16.63;10.20;;;15.30;99.90;;;;;;5039074;28;20305;-81
2023/08/20 05:11:38;;;;;;;18.33;9.13;;;15.30;99.90;;;;;;5046212;28;20310;-81
2023/08/20 05:14:06;;;;;;;29.13;9.67;;;15.40;99.90;;;;;;5039398;28;20282;-81
2023/08/20 05:16:32;;;;;;;14.33;8.27;;;15.40;99.90;;;;;;5039080;28;20337;-81
2023/08/20 05:18:59;;;;;;;22.43;9.30;;;15.50;99.90;;;;;;5045917;28;20300;-81
2023/08/20 05:21:26;;;;;;;36.83;10.30;;;15.60;99.90;;;;;;5043702;28;20314;-81
2023/08/20 05:23:53;;;;;;;18.17;8.60;;;15.60;99.90;;;;;;5048489;28;20234;-80
2023/08/20 05:26:20;;;;;;;25.77;9.83;;;15.70;99.90;;;;;;5048979;28;20322;-81
2023/08/20 05:28:48;;;;;;;58.47;11.83;;;15.80;99.90;;;;;;5046593;28;20227;-80
2023/08/20 05:31:14;;;;;;;51.33;12.27;;;15.80;99.90;;;;;;5065979;28;20218;-81
2023/08/20 05:33:41;;;;;;;57.23;12.53;;;15.90;99.90;;;;;;5046643;28;20230;-81
2023/08/20 05:36:08;;;;;;;44.90;10.73;;;15.90;99.90;;;;;;5043944;28;20273;-81
2023/08/20 05:38:35;;;;;;;41.27;11.67;;;16.00;99.90;;;;;;5050728;28;20970;-80
2023/08/20 05:41:02;;;;;;;42.87;11.13;;;16.00;99.90;;;;;;5049234;28;20220;-80
2023/08/20 05:43:28;;;;;;;41.20;11.53;;;16.00;99.90;;;;;;5066283;28;20693;-81
2023/08/20 05:45:57;;;;;;;33.00;10.90;;;16.10;99.90;;;;;;5046972;28;20580;-81
2023/08/20 05:48:24;;;;;;;53.77;11.50;;;16.10;99.90;;;;;;5048960;28;21694;-81
2023/08/20 05:50:51;;;;;;;43.40;11.07;;;16.10;99.90;;;;;;5047645;28;20226;-81
2023/08/20 05:53:17;;;;;;;22.63;9.77;;;16.20;99.90;;;;;;5049275;28;20307;-81
2023/08/20 05:55:46;;;;;;;48.07;12.17;;;16.20;99.90;;;;;;5048920;28;20219;-81
2023/08/20 05:58:13;;;;;;;66.67;12.57;;;16.30;99.90;;;;;;5048844;28;20223;-82
2023/08/20 06:00:41;;;;;;;46.77;13.13;;;16.30;99.90;;;;;;5044018;28;20319;-81
2023/08/20 06:03:09;;;;;;;57.17;13.00;;;16.40;99.90;;;;;;5034675;28;20223;-82
2023/08/20 06:05:35;;;;;;;40.53;13.37;;;16.40;99.90;;;;;;5044532;28;20235;-83
2023/08/20 06:08:02;;;;;;;26.37;11.37;;;16.50;99.90;;;;;;5048801;28;20904;-83
2023/08/20 06:10:29;;;;;;;41.43;13.93;;;16.60;99.90;;;;;;5062238;28;20240;-84
2023/08/20 06:12:56;;;;;;;71.60;14.63;;;16.70;99.90;;;;;;5046477;28;20313;-83
2023/08/20 06:15:23;;;;;;;45.87;12.77;;;16.80;99.90;;;;;;5062814;28;20231;-83
2023/08/20 06:17:50;;;;;;;77.90;14.90;;;16.90;99.90;;;;;;5045128;28;20223;-84
2023/08/20 06:20:18;;;;;;;38.57;11.40;;;17.00;99.90;;;;;;5060708;28;20223;-84
2023/08/20 06:22:45;;;;;;;92.87;13.73;;;17.10;99.90;;;;;;5056023;28;20724;-84
2023/08/20 06:25:12;;;;;;;82.23;12.20;;;17.20;99.90;;;;;;5061807;28;20593;-83
2023/08/20 06:27:38;;;;;;;84.80;12.20;;;17.30;99.90;;;;;;5047003;28;20236;-83
2023/08/20 06:30:06;;;;;;;76.43;13.80;;;17.30;99.90;;;;;;5059711;28;20246;-83
2023/08/20 06:32:33;;;;;;;63.70;11.20;;;17.40;99.90;;;;;;5039048;28;20223;-83
2023/08/20 06:35:00;;;;;;;53.60;11.33;;;17.50;99.90;;;;;;5039627;28;20227;-84
2023/08/20 06:37:28;;;;;;;44.43;9.03;;;17.50;99.90;;;;;;5042717;28;20235;-84
2023/08/20 06:39:54;;;;;;;49.33;9.50;;;17.60;99.90;;;;;;5044330;28;20229;-83
2023/08/20 06:42:21;;;;;;;107.13;11.23;;;17.70;99.90;;;;;;5046916;28;20234;-82
2023/08/20 06:44:48;;;;;;;93.70;10.53;;;17.80;99.90;;;;;;5065025;28;20243;-83
2023/08/20 06:47:15;;;;;;;32.85;8.20;;;17.80;99.90;;;;;;5039494;28;20230;-82
2023/08/20 06:49:41;;;;;;;17.17;7.67;;;17.80;99.90;;;;;;5049255;28;20292;-82
2023/08/20 06:52:08;;;;;;;102.33;14.23;;;17.90;99.90;;;;;;5044289;28;20227;-82
2023/08/20 06:54:36;;;;;;;101.10;13.25;;;17.90;99.90;;;;;;5046829;28;20220;-83
2023/08/20 06:57:03;;;;;;;22.00;9.23;;;18.00;99.90;;;;;;5042731;28;20230;-83
2023/08/20 06:59:29;;;;;;;21.17;10.53;;;18.10;99.90;;;;;;5043499;28;20225;-82
2023/08/20 07:01:56;;;;;;;32.95;12.25;;;18.20;99.90;;;;;;5064027;28;20224;-84
2023/08/20 07:04:23;;;;;;;27.58;10.98;;;18.30;99.90;;;;;;5046162;28;20313;-83
2023/08/20 07:06:51;;;;;;;56.85;13.43;;;18.40;99.90;;;;;;5058652;28;20231;-83
2023/08/20 07:09:18;;;;;;;42.97;12.50;;;18.50;99.90;;;;;;5046888;28;20242;-81
2023/08/20 07:11:45;;;;;;;34.67;10.07;;;18.50;99.90;;;;;;5044314;28;20724;-81
2023/08/20 07:14:12;;;;;;;32.60;9.63;;;18.60;99.90;;;;;;5060091;28;20219;-83
2023/08/20 07:16:39;;;;;;;24.40;8.18;;;18.60;99.90;;;;;;5048111;28;20233;-82
2023/08/20 07:19:05;;;;;;;50.00;9.23;;;18.60;99.90;;;;;;5039273;28;20223;-83
2023/08/20 07:21:32;;;;;;;29.73;8.45;;;18.50;99.90;;;;;;5039122;28;20224;-82
2023/08/20 07:23:59;;;;;;;15.50;7.85;;;18.50;99.90;;;;;;5060045;28;20309;-83
2023/08/20 07:26:25;;;;;;;12.02;8.73;;;18.50;99.90;;;;;;5042308;28;20491;-82
2023/08/20 07:28:59;;;;;;;29.15;9.57;;;18.60;99.90;;;;;;5063297;28;20728;-82
2023/08/20 07:31:27;;;;;;;14.98;8.43;;;18.70;99.90;;;;;;5037537;28;20228;-83
2023/08/20 07:33:55;;;;;;;18.77;12.60;;;18.80;99.90;;;;;;5061711;28;20823;-83
2023/08/20 07:36:23;;;;;;;19.85;12.35;;;19.00;99.90;;;;;;5043366;28;20223;-81
2023/08/20 07:38:50;;;;;;;18.60;13.55;;;19.20;99.90;;;;;;5038872;28;20215;-82
2023/08/20 07:41:19;;;;;;;19.77;14.48;;;19.40;99.90;;;;;;5047663;28;20926;-83
2023/08/20 07:43:46;;;;;;;17.67;13.57;;;19.60;99.90;;;;;;5050574;28;20232;-82
2023/08/20 07:46:14;;;;;;;19.55;15.05;;;19.70;99.90;;;;;;5067611;28;20228;-83
2023/08/20 07:48:41;;;;;;;15.73;14.07;;;19.80;99.90;;;;;;5050802;28;20231;-82
2023/08/20 07:51:08;;;;;;;16.00;13.10;;;19.90;99.90;;;;;;5067495;28;20223;-82
2023/08/20 07:53:35;;;;;;;22.63;15.57;;;20.10;99.90;;;;;;5050694;28;20220;-84
2023/08/20 07:56:02;;;;;;;20.45;14.82;;;20.20;99.90;;;;;;5042979;28;20223;-81
2023/08/20 07:58:29;;;;;;;22.65;17.00;;;20.30;99.90;;;;;;5060311;28;20273;-81
2023/08/20 08:00:56;;;;;;;17.20;15.02;;;20.50;99.90;;;;;;5042273;28;20227;-81
2023/08/20 08:03:26;;;;;;;13.70;12.27;;;20.70;99.90;;;;;;5040294;28;20220;-81
2023/08/20 08:05:53;;;;;;;15.15;11.40;;;20.80;99.90;;;;;;5061121;28;20219;-81
2023/08/20 08:08:21;;;;;;;13.10;10.73;;;20.80;99.90;;;;;;5039245;28;20257;-81
2023/08/20 08:10:47;;;;;;;15.05;12.13;;;21.00;99.90;;;;;;5048065;28;20227;-80
2023/08/20 08:13:15;;;;;;;12.95;9.85;;;21.20;99.90;;;;;;5045784;28;20242;-80
2023/08/20 08:15:42;;;;;;;14.68;11.32;;;21.50;99.90;;;;;;5068037;28;20317;-81
2023/08/20 08:18:08;;;;;;;12.00;9.85;;;22.00;99.90;;;;;;5044464;28;20229;-81
2023/08/20 08:20:36;;;;;;;15.27;10.00;;;22.40;99.90;;;;;;5036891;28;20220;-81
2023/08/20 08:23:03;;;;;;;11.27;9.07;;;22.70;99.90;;;;;;5036768;28;20224;-82
2023/08/20 08:25:30;;;;;;;10.75;8.65;;;23.00;99.90;;;;;;5044109;28;20230;-81
2023/08/20 08:27:57;;;;;;;12.60;9.82;;;23.40;99.90;;;;;;5065091;28;20223;-81
2023/08/20 08:30:24;;;;;;;11.75;9.20;;;23.80;99.90;;;;;;5041226;28;20242;-80
2023/08/20 08:32:50;;;;;;;11.38;8.50;;;24.30;99.90;;;;;;5055768;28;20231;-81
2023/08/20 08:35:17;;;;;;;10.75;9.07;;;24.70;99.90;;;;;;5044941;28;20248;-81
2023/08/20 08:37:45;;;;;;;12.27;9.52;;;25.30;99.90;;;;;;5061320;28;20223;-81
2023/08/20 08:40:13;;;;;;;10.23;8.07;;;25.70;99.90;;;;;;5062904;28;20226;-80
2023/08/20 08:42:41;;;;;;;13.60;9.23;;;26.30;99.90;;;;;;5038469;28;20223;-80
2023/08/20 08:45:09;;;;;;;12.20;9.70;;;26.70;99.90;;;;;;5058146;28;20223;-81
2023/08/20 08:47:37;;;;;;;12.60;9.07;;;27.10;99.90;;;;;;5044206;28;20241;-79
2023/08/20 08:50:04;;;;;;;11.18;7.72;;;27.30;99.90;;;;;;5040192;28;20822;-82
2023/08/20 08:52:32;;;;;;;11.38;7.80;;;27.60;99.90;;;;;;5053398;28;20223;-81
2023/08/20 08:55:00;;;;;;;10.88;7.95;;;27.80;99.90;;;;;;5055724;28;20233;-80
2023/08/20 08:57:27;;;;;;;9.00;7.60;;;28.20;99.90;;;;;;5043597;28;20231;-81
2023/08/20 08:59:53;;;;;;;9.15;7.15;;;28.50;99.90;;;;;;5046683;28;20219;-81
2023/08/20 09:02:20;;;;;;;8.82;4.85;;;28.90;99.90;;;;;;5065423;28;20310;-80
2023/08/20 09:04:47;;;;;;;7.18;4.45;;;29.20;99.90;;;;;;5064679;28;20219;-81
2023/08/20 09:07:15;;;;;;;5.70;3.53;;;29.70;99.90;;;;;;5044955;28;20586;-81
2023/08/20 09:09:43;;;;;;;4.55;2.90;;;30.10;99.40;;;;;;5065834;28;20850;-81
2023/08/20 09:12:19;;;;;;;8.18;2.80;;;30.50;98.10;;;;;;5046106;28;20216;-81
2023/08/20 09:14:48;;;;;;;6.70;2.35;;;30.80;96.90;;;;;;5060223;28;20211;-81
2023/08/20 09:17:15;;;;;;;4.13;2.40;;;31.20;97.30;;;;;;5035581;28;20688;-82
2023/08/20 09:19:44;;;;;;;5.28;2.25;;;31.50;97.00;;;;;;5047606;28;20215;-81
2023/08/20 09:22:12;;;;;;;4.18;2.17;;;31.90;95.60;;;;;;5068777;28;20227;-80
2023/08/20 09:24:42;;;;;;;5.38;2.03;;;32.10;94.50;;;;;;5060493;28;20306;-81
2023/08/20 09:27:09;;;;;;;2.92;1.92;;;32.30;93.80;;;;;;5046954;28;20230;-81
2023/08/20 09:29:45;;;;;;;4.65;1.90;;;32.50;94.10;;;;;;5070073;28;20239;-81
2023/08/20 09:32:15;;;;;;;4.70;2.08;;;32.50;92.10;;;;;;5041040;28;20219;-81
2023/08/20 09:34:42;;;;;;;5.88;2.50;;;32.60;92.20;;;;;;5044491;28;20227;-80
2023/08/20 09:37:10;;;;;;;5.95;2.15;;;32.70;92.80;;;;;;5041227;28;20220;-80
2023/08/20 09:39:37;;;;;;;4.43;2.20;;;32.70;92.30;;;;;;5066534;28;20649;-81
2023/08/20 09:42:05;;;;;;;3.65;2.05;;;32.80;91.60;;;;;;5068099;28;20227;-82
2023/08/20 09:44:35;;;;;;;6.20;2.78;;;32.90;91.80;;;;;;5059546;28;20227;-81
2023/08/20 09:47:07;;;;;;;3.10;2.00;;;33.10;91.30;;;;;;5063726;28;20274;-81
2023/08/20 09:49:37;;;;;;;3.22;2.15;;;33.30;91.20;;;;;;5064368;28;20239;-81
2023/08/20 09:52:05;;;;;;;5.30;2.30;;;33.50;90.20;;;;;;5051225;28;20227;-82
2023/08/20 09:54:45;;;;;;;7.90;2.63;;;33.60;87.70;;;;;;5035897;28;20219;-81
2023/08/20 09:57:18;;;;;;;5.32;2.40;;;33.80;87.80;;;;;;5066431;28;20223;-81
2023/08/20 09:59:47;;;;;;;3.92;2.17;;;33.80;85.60;;;;;;5058979;28;20691;-80
2023/08/20 10:02:16;;;;;;;4.03;2.20;;;33.80;85.40;;;;;;5063433;28;20223;-82
2023/08/20 10:04:43;;;;;;;4.75;2.13;;;33.80;85.20;;;;;;5049261;28;20236;-82
2023/08/20 10:07:11;;;;;;;3.90;2.08;;;33.80;86.30;;;;;;5051382;28;20319;-80
2023/08/20 10:09:39;;;;;;;4.80;2.30;;;33.90;83.70;;;;;;5068254;28;20322;-81
2023/08/20 10:12:07;;;;;;;4.50;2.10;;;33.90;85.80;;;;;;5042489;28;20223;-82
2023/08/20 10:14:34;;;;;;;6.05;2.30;;;33.90;85.40;;;;;;5044898;28;20230;-81
2023/08/20 10:17:07;;;;;;;5.13;2.60;;;34.10;85.60;;;;;;5035346;28;20232;-80
2023/08/20 10:19:36;;;;;;;5.35;2.08;;;34.10;82.30;;;;;;5062125;28;20286;-82
2023/08/20 10:22:03;;;;;;;5.35;2.38;;;34.30;83.70;;;;;;5037007;28;20220;-82
2023/08/20 10:24:41;;;;;;;4.70;2.50;;;34.40;82.80;;;;;;5037672;28;20239;-81
2023/08/20 10:27:09;;;;;;;3.55;2.20;;;34.40;81.00;;;;;;5040272;28;20234;-82
2023/08/20 10:29:37;;;;;;;5.30;2.60;;;34.50;81.40;;;;;;5062835;28;20354;-80
2023/08/20 10:32:09;;;;;;;4.50;2.20;;;34.50;80.60;;;;;;5034421;28;20227;-82
2023/08/20 10:34:39;;;;;;;4.03;2.47;;;34.60;80.60;;;;;;5039551;28;20273;-81
2023/08/20 10:37:10;;;;;;;5.78;2.60;;;34.50;79.90;;;;;;5049409;28;20219;-81
2023/08/20 10:39:37;;;;;;;5.55;2.30;;;34.50;78.90;;;;;;5045191;28;20314;-81
2023/08/20 10:42:23;;;;;;;4.60;2.15;;;34.40;78.30;;;;;;5059530;28;20216;-80
2023/08/20 10:44:58;;;;;;;3.33;2.03;;;34.20;77.80;;;;;;5042154;28;20231;-82
2023/08/20 10:47:25;;;;;;;4.50;2.20;;;33.90;77.10;;;;;;5041396;28;20277;-81
2023/08/20 10:49:54;;;;;;;3.88;1.90;;;33.70;78.40;;;;;;5042548;28;20608;-80
2023/08/20 10:52:20;;;;;;;4.07;2.35;;;33.40;79.90;;;;;;5045304;28;20227;-81
2023/08/20 10:54:51;;;;;;;5.68;2.35;;;33.30;81.00;;;;;;5063661;28;20229;-81
2023/08/20 10:57:21;;;;;;;4.13;2.08;;;33.30;80.00;;;;;;5044370;28;20284;-82
2023/08/20 10:59:58;;;;;;;4.28;2.20;;;33.30;80.40;;;;;;5047284;28;20227;-81
2023/08/20 11:02:25;;;;;;;3.72;2.10;;;33.30;79.60;;;;;;5044172;28;20867;-82
2023/08/20 11:04:54;;;;;;;5.47;2.10;;;33.20;79.90;;;;;;5057881;28;20223;-82
2023/08/20 11:07:21;;;;;;;6.88;2.53;;;33.20;79.50;;;;;;5064798;28;20249;-82
2023/08/20 11:09:48;;;;;;;4.28;1.92;;;33.20;79.60;;;;;;5041055;28;20247;-81
2023/08/20 11:12:15;;;;;;;7.00;2.20;;;33.30;79.30;;;;;;5035749;28;20303;-80
2023/08/20 11:14:42;;;;;;;3.78;2.03;;;33.40;80.20;;;;;;5039934;28;20706;-82
2023/08/20 11:17:09;;;;;;;3.85;2.30;;;33.50;78.60;;;;;;5066474;28;20223;-82
2023/08/20 11:19:36;;;;;;;3.92;2.20;;;33.60;78.10;;;;;;5044200;28;20223;-81
2023/08/20 11:22:04;;;;;;;3.80;2.03;;;33.60;77.10;;;;;;5041916;28;20797;-82
2023/08/20 11:24:32;;;;;;;6.60;2.10;;;33.60;76.50;;;;;;5017282;28;20234;-82
2023/08/20 11:26:58;;;;;;;5.00;2.15;;;33.40;75.50;;;;;;5055521;28;20226;-82
2023/08/20 11:29:26;;;;;;;7.57;2.10;;;33.20;75.10;;;;;;5063077;28;20440;-82
2023/08/20 11:31:53;;;;;;;4.65;2.33;;;33.00;75.20;;;;;;5060727;28;20648;-82
2023/08/20 11:34:20;;;;;;;7.13;1.95;;;32.80;75.60;;;;;;5035868;28;20211;-81
2023/08/20 11:36:47;;;;;;;5.93;2.38;;;32.60;76.30;;;;;;5060545;28;20311;-81
2023/08/20 11:39:16;;;;;;;3.97;2.30;;;32.40;76.90;;;;;;5042328;28;20215;-81
2023/08/20 11:41:45;;;;;;;4.22;2.20;;;32.20;76.90;;;;;;5034586;28;20828;-82
2023/08/20 11:44:11;;;;;;;4.28;2.17;;;32.20;78.80;;;;;;5062230;28;20220;-82
2023/08/20 11:46:44;;;;;;;5.80;2.13;;;32.20;79.70;;;;;;5061212;28;20228;-82
2023/08/20 11:49:11;;;;;;;4.70;2.40;;;32.30;77.60;;;;;;5040013;28;20658;-81
2023/08/20 11:51:39;;;;;;;5.30;2.10;;;32.40;78.60;;;;;;5032676;28;20265;-82
2023/08/20 11:54:06;;;;;;;6.07;2.15;;;32.60;78.40;;;;;;5044738;28;20901;-81
2023/08/20 11:56:35;;;;;;;5.82;2.00;;;32.70;77.20;;;;;;5050479;28;20261;-82
2023/08/20 11:59:03;;;;;;;4.18;1.80;;;32.70;76.30;;;;;;5045099;28;20226;-82
2023/08/20 12:01:33;;;;;;;4.47;2.20;;;32.70;76.40;;;;;;5043671;28;20228;-81
2023/08/20 12:04:05;;;;;;;3.88;2.03;;;32.70;75.80;;;;;;5045380;28;20572;-82
2023/08/20 12:06:32;;;;;;;4.57;1.90;;;32.70;76.50;;;;;;5061599;28;20323;-81
2023/08/20 12:08:59;;;;;;;3.72;1.63;;;32.70;76.30;;;;;;5046649;28;20219;-82
2023/08/20 12:11:26;;;;;;;5.30;1.75;;;32.70;76.50;;;;;;5058875;28;20830;-82
2023/08/20 12:13:55;;;;;;;4.15;1.83;;;32.70;76.10;;;;;;5062362;28;20220;-82
2023/08/20 12:16:23;;;;;;;7.32;2.05;;;32.80;75.60;;;;;;5063635;28;20224;-82
2023/08/20 12:18:50;;;;;;;4.03;2.10;;;32.70;75.30;;;;;;5062912;28;20225;-82
2023/08/20 12:21:17;;;;;;;5.10;2.17;;;32.70;75.50;;;;;;5044095;28;20580;-82
2023/08/20 12:23:44;;;;;;;5.47;1.90;;;32.60;75.30;;;;;;5045223;28;20373;-80
2023/08/20 12:26:10;;;;;;;4.18;1.80;;;32.50;75.30;;;;;;5041585;28;20230;-81
2023/08/20 12:28:37;;;;;;;6.78;1.80;;;32.40;75.90;;;;;;5040604;28;20220;-82
2023/08/20 12:31:05;;;;;;;5.68;2.30;;;32.50;77.00;;;;;;5048759;28;20228;-82
2023/08/20 12:33:32;;;;;;;5.95;2.00;;;32.60;76.50;;;;;;5054774;28;20224;-82
2023/08/20 12:35:59;;;;;;;4.25;1.88;;;32.60;75.50;;;;;;5039701;28;20285;-83
2023/08/20 12:38:26;;;;;;;3.78;1.90;;;32.70;75.50;;;;;;5037376;28;20220;-82
2023/08/20 12:40:52;;;;;;;5.25;1.85;;;32.70;74.50;;;;;;5040890;28;20219;-83